Time;durP1;ratioP1;P1;durP2;ratioP2;P2;SDS_P1;SDS_P2;PMS_P1;PMS_P2;Temp;Humidity;BMP_temperature;BMP_pressure;BME280_temperature;BME280_humidity;BME280_pressure;Samples;Min_cycle;Max_cycle;Signal;HPM_P1;HPM_P2
2022/08/29 00:00:41;;;;;;;4.30;1.80;;;18.60;63.00;;;;;;5057095;28;20461;-49
2022/08/29 00:03:10;;;;;;;3.07;2.07;;;18.50;63.10;;;;;;5085807;28;20513;-49
2022/08/29 00:05:37;;;;;;;4.13;2.13;;;18.50;62.80;;;;;;5091122;28;21005;-49
2022/08/29 00:08:05;;;;;;;4.20;1.80;;;18.50;62.80;;;;;;5066838;28;20468;-51
2022/08/29 00:10:35;;;;;;;3.07;1.83;;;18.40;63.50;;;;;;5085959;28;20448;-49
2022/08/29 00:13:04;;;;;;;5.20;2.33;;;18.40;64.00;;;;;;5087198;28;20456;-49
2022/08/29 00:15:31;;;;;;;5.70;2.23;;;18.40;64.00;;;;;;5062209;28;20461;-49
2022/08/29 00:18:10;;;;;;;5.20;1.73;;;18.40;63.00;;;;;;5080198;28;20518;-49
2022/08/29 00:20:37;;;;;;;3.30;1.93;;;18.40;63.00;;;;;;5086828;28;20460;-49
2022/08/29 00:23:05;;;;;;;7.67;2.43;;;18.40;62.00;;;;;;5071880;28;20831;-49
2022/08/29 00:25:33;;;;;;;2.23;1.90;;;18.40;62.10;;;;;;5070028;28;21008;-49
2022/08/29 00:28:00;;;;;;;5.00;1.90;;;18.30;61.90;;;;;;5085109;28;20964;-49
2022/08/29 00:30:27;;;;;;;2.93;2.00;;;18.20;61.70;;;;;;5084982;28;20463;-49
2022/08/29 00:32:54;;;;;;;4.57;2.40;;;18.20;61.90;;;;;;5086385;28;20798;-49
2022/08/29 00:35:27;;;;;;;4.27;2.30;;;18.20;62.20;;;;;;5090127;28;20445;-49
2022/08/29 00:37:54;;;;;;;7.07;2.20;;;18.10;62.70;;;;;;5063881;28;20861;-48
2022/08/29 00:40:29;;;;;;;4.03;2.10;;;18.00;62.90;;;;;;5072998;28;20983;-48
2022/08/29 00:42:57;;;;;;;4.90;2.60;;;18.00;62.90;;;;;;5084568;28;20546;-49
2022/08/29 00:45:24;;;;;;;3.83;1.97;;;17.90;63.60;;;;;;5088039;28;20469;-49
2022/08/29 00:47:56;;;;;;;1.67;1.57;;;17.90;62.60;;;;;;5084052;28;20453;-49
2022/08/29 00:50:33;;;;;;;3.43;1.93;;;17.80;63.70;;;;;;5068237;28;20831;-49
2022/08/29 00:53:02;;;;;;;6.80;2.33;;;17.80;62.80;;;;;;5085957;28;20957;-49
2022/08/29 00:55:32;;;;;;;5.13;2.30;;;17.80;62.60;;;;;;5091134;28;20821;-49
2022/08/29 00:58:39;;;;;;;4.83;2.00;;;17.70;62.70;;;;;;5087131;28;20480;-49
2022/08/29 01:01:06;;;;;;;2.80;1.67;;;17.70;63.50;;;;;;4985515;28;20971;-49
2022/08/29 01:03:35;;;;;;;3.63;1.60;;;17.70;63.30;;;;;;5050004;28;20453;-49
2022/08/29 01:06:09;;;;;;;3.83;2.00;;;17.70;63.70;;;;;;5078347;28;20465;-49
2022/08/29 01:08:35;;;;;;;3.03;1.80;;;17.60;63.80;;;;;;5070890;28;20526;-49
2022/08/29 01:13:52;;;;;;;4.30;2.10;;;17.50;63.10;;;;;;5087480;28;20933;-49
2022/08/29 01:16:22;;;;;;;3.70;2.33;;;17.30;63.70;;;;;;5070125;28;21022;-49
2022/08/29 01:18:53;;;;;;;4.33;1.80;;;17.40;63.30;;;;;;5086167;28;20461;-49
2022/08/29 01:21:43;;;;;;;2.70;1.80;;;17.40;64.20;;;;;;5069974;28;20475;-49
2022/08/29 01:24:21;;;;;;;3.23;1.77;;;17.40;63.60;;;;;;5079658;28;21021;-49
2022/08/29 01:26:48;;;;;;;3.17;1.90;;;17.30;64.40;;;;;;5065226;28;20460;-49
2022/08/29 01:29:15;;;;;;;3.20;1.70;;;17.30;64.30;;;;;;5086668;28;20494;-49
2022/08/29 01:31:44;;;;;;;3.93;2.10;;;17.20;64.20;;;;;;5086003;28;20462;-49
2022/08/29 01:34:24;;;;;;;3.77;1.80;;;17.20;65.00;;;;;;5067736;28;20606;-49
2022/08/29 01:36:55;;;;;;;8.63;2.60;;;17.10;64.60;;;;;;5085626;28;20496;-49
2022/08/29 01:39:26;;;;;;;6.33;2.30;;;17.00;65.30;;;;;;5072690;28;20476;-49
2022/08/29 01:41:53;;;;;;;3.40;1.80;;;16.90;65.60;;;;;;5085100;28;20463;-49
2022/08/29 01:44:22;;;;;;;3.03;2.30;;;16.90;65.90;;;;;;5089972;28;20449;-49
2022/08/29 01:46:50;;;;;;;2.97;2.17;;;17.00;66.00;;;;;;5083512;28;20468;-49
2022/08/29 01:49:18;;;;;;;5.20;2.13;;;16.90;65.70;;;;;;5089793;28;20818;-49
2022/08/29 01:51:45;;;;;;;5.63;1.80;;;17.00;65.80;;;;;;5086541;28;20461;-49
2022/08/29 01:54:12;;;;;;;4.37;2.40;;;17.00;66.50;;;;;;5072339;28;20469;-49
2022/08/29 01:56:45;;;;;;;4.63;2.17;;;16.90;65.80;;;;;;5086687;28;20480;-49
2022/08/29 01:59:15;;;;;;;5.00;2.23;;;16.90;66.50;;;;;;5067363;28;20463;-49
2022/08/29 02:01:54;;;;;;;3.60;2.10;;;16.90;66.60;;;;;;5066600;28;20482;-49
2022/08/29 02:04:21;;;;;;;3.47;1.80;;;16.80;66.90;;;;;;5068639;28;20452;-49
2022/08/29 02:06:49;;;;;;;2.60;1.97;;;16.80;66.40;;;;;;5088630;28;20461;-49
2022/08/29 02:09:16;;;;;;;3.60;1.60;;;16.90;65.60;;;;;;5088558;28;20483;-49
2022/08/29 02:11:45;;;;;;;5.53;1.70;;;17.00;64.90;;;;;;5066790;28;20452;-49
2022/08/29 02:14:13;;;;;;;3.70;1.80;;;17.00;64.90;;;;;;5086705;28;20475;-49
2022/08/29 02:16:45;;;;;;;3.47;1.47;;;17.00;64.90;;;;;;5083753;28;20845;-49
2022/08/29 02:19:12;;;;;;;7.03;1.80;;;17.00;65.30;;;;;;5088415;28;20457;-49
2022/08/29 02:21:39;;;;;;;2.20;1.83;;;16.90;65.70;;;;;;5087431;28;20964;-49
2022/08/29 02:24:07;;;;;;;4.53;2.33;;;16.90;65.70;;;;;;5068960;28;20860;-49
2022/08/29 02:26:52;;;;;;;4.63;1.87;;;16.80;66.40;;;;;;5070314;28;20462;-48
2022/08/29 02:29:18;;;;;;;3.13;1.83;;;16.80;66.60;;;;;;5085443;28;20971;-49
2022/08/29 02:31:45;;;;;;;4.03;1.90;;;16.80;65.60;;;;;;5088496;28;21019;-49
2022/08/29 02:34:12;;;;;;;4.47;1.67;;;16.70;66.80;;;;;;5070584;28;20465;-49
2022/08/29 02:36:39;;;;;;;5.30;1.90;;;16.60;66.20;;;;;;5071379;28;20481;-49
2022/08/29 02:39:08;;;;;;;3.00;1.77;;;16.60;67.50;;;;;;5085879;28;20453;-48
2022/08/29 02:41:36;;;;;;;6.50;2.57;;;16.50;66.90;;;;;;5087361;28;20456;-48
2022/08/29 02:44:03;;;;;;;4.37;1.93;;;16.60;66.40;;;;;;5064728;28;21016;-48
2022/08/29 02:46:30;;;;;;;3.80;2.07;;;16.70;66.20;;;;;;5082380;28;20467;-48
2022/08/29 02:48:57;;;;;;;2.13;1.53;;;16.70;66.80;;;;;;5082911;28;20465;-48
2022/08/29 02:51:29;;;;;;;5.13;2.20;;;16.70;66.20;;;;;;5082841;28;21024;-48
2022/08/29 02:53:57;;;;;;;3.20;1.80;;;16.60;66.50;;;;;;5083034;28;20468;-48
2022/08/29 02:56:24;;;;;;;2.90;2.13;;;16.60;66.90;;;;;;5085116;28;20539;-48
2022/08/29 02:58:51;;;;;;;6.37;2.10;;;16.60;67.10;;;;;;5086961;28;20847;-48
2022/08/29 03:01:20;;;;;;;5.03;2.50;;;16.50;67.30;;;;;;5082111;28;20456;-48
2022/08/29 03:03:49;;;;;;;6.03;2.20;;;16.50;67.90;;;;;;5080903;28;20921;-48
2022/08/29 03:06:16;;;;;;;5.67;1.73;;;16.40;67.90;;;;;;5064053;28;20453;-48
2022/08/29 03:08:43;;;;;;;4.93;2.00;;;16.40;67.80;;;;;;5085677;28;20472;-48
2022/08/29 03:11:10;;;;;;;2.43;1.90;;;16.40;68.10;;;;;;5076165;28;20461;-48
2022/08/29 03:13:36;;;;;;;3.40;2.23;;;16.40;68.40;;;;;;5067232;28;20457;-48
2022/08/29 03:16:04;;;;;;;8.07;2.20;;;16.40;68.30;;;;;;5066282;28;20993;-48
2022/08/29 03:18:31;;;;;;;6.27;1.93;;;16.30;68.30;;;;;;5067467;28;20460;-48
2022/08/29 03:20:58;;;;;;;3.43;1.53;;;16.30;68.00;;;;;;5085803;28;20473;-48
2022/08/29 03:23:25;;;;;;;2.60;1.97;;;16.20;68.60;;;;;;5085325;28;20464;-48
2022/08/29 03:25:51;;;;;;;7.03;1.87;;;16.20;68.40;;;;;;5083360;28;20460;-48
2022/08/29 03:28:18;;;;;;;3.90;1.90;;;16.30;67.80;;;;;;5081532;28;20969;-48
2022/08/29 03:30:46;;;;;;;1.83;1.50;;;16.30;68.10;;;;;;5085605;28;20950;-48
2022/08/29 03:33:12;;;;;;;5.90;2.07;;;16.30;68.20;;;;;;5084243;28;20464;-48
2022/08/29 03:35:39;;;;;;;3.60;2.10;;;16.30;68.60;;;;;;5065759;28;20469;-48
2022/08/29 03:38:06;;;;;;;4.10;2.00;;;16.30;68.70;;;;;;5084778;28;20484;-48
2022/08/29 03:40:33;;;;;;;3.63;2.17;;;16.20;68.80;;;;;;5087114;28;20461;-48
2022/08/29 03:43:02;;;;;;;2.50;2.20;;;16.20;68.50;;;;;;5086726;28;20532;-48
2022/08/29 03:45:28;;;;;;;3.47;2.57;;;16.00;69.20;;;;;;5069436;28;20449;-48
2022/08/29 03:47:55;;;;;;;5.70;3.10;;;15.90;69.00;;;;;;5090271;28;20495;-48
2022/08/29 03:50:23;;;;;;;6.97;2.90;;;15.90;68.90;;;;;;5087325;28;20463;-48
2022/08/29 03:52:50;;;;;;;3.10;2.80;;;16.00;69.40;;;;;;5069656;28;21036;-48
2022/08/29 03:55:18;;;;;;;6.73;3.60;;;16.00;69.30;;;;;;5088999;28;20992;-48
2022/08/29 03:57:46;;;;;;;4.13;2.00;;;16.00;69.20;;;;;;5087291;28;20490;-48
2022/08/29 04:00:16;;;;;;;4.27;2.13;;;16.00;69.10;;;;;;5070605;28;20817;-48
2022/08/29 04:02:46;;;;;;;1.60;1.43;;;16.00;69.40;;;;;;5084284;28;20453;-48
2022/08/29 04:05:15;;;;;;;5.60;1.80;;;15.90;69.20;;;;;;5087269;28;20484;-48
2022/08/29 04:07:49;;;;;;;2.70;2.17;;;15.90;69.50;;;;;;5087632;28;20693;-48
2022/08/29 04:10:20;;;;;;;3.60;2.03;;;15.90;70.00;;;;;;5066845;28;20452;-48
2022/08/29 04:12:47;;;;;;;6.70;2.20;;;15.90;69.80;;;;;;5080678;28;20477;-48
2022/08/29 04:15:20;;;;;;;4.73;2.03;;;15.90;69.40;;;;;;5080826;28;20468;-48
2022/08/29 04:17:49;;;;;;;2.80;2.10;;;16.00;69.00;;;;;;5068616;28;20480;-48
2022/08/29 04:20:21;;;;;;;7.93;2.07;;;15.90;69.40;;;;;;5085253;28;20828;-48
2022/08/29 04:22:52;;;;;;;3.90;1.40;;;15.90;69.70;;;;;;5084463;28;20463;-48
2022/08/29 04:25:20;;;;;;;2.73;1.93;;;15.80;70.10;;;;;;5067671;28;20461;-48
2022/08/29 04:27:48;;;;;;;5.70;2.77;;;15.80;69.90;;;;;;5083379;28;20466;-48
2022/08/29 04:30:20;;;;;;;4.87;2.07;;;15.80;70.10;;;;;;5083119;28;21009;-48
2022/08/29 04:32:47;;;;;;;3.07;1.80;;;15.60;70.90;;;;;;5081879;28;21153;-48
2022/08/29 04:35:14;;;;;;;3.17;2.10;;;15.50;70.60;;;;;;5080240;28;20476;-48
2022/08/29 04:37:42;;;;;;;5.10;2.27;;;15.50;70.80;;;;;;5063936;28;20938;-48
2022/08/29 04:40:12;;;;;;;2.47;1.87;;;15.60;70.90;;;;;;5065106;28;20467;-48
2022/08/29 04:42:39;;;;;;;3.30;2.33;;;15.70;70.80;;;;;;5085049;28;20977;-48
2022/08/29 04:45:08;;;;;;;3.63;2.00;;;15.60;70.90;;;;;;5071125;28;20893;-48
2022/08/29 04:47:35;;;;;;;5.03;2.50;;;15.60;71.50;;;;;;5086697;28;20480;-48
2022/08/29 04:50:02;;;;;;;3.97;2.13;;;15.60;71.60;;;;;;5068864;28;20866;-49
2022/08/29 04:52:29;;;;;;;4.97;2.67;;;15.60;71.60;;;;;;5061707;28;20448;-48
2022/08/29 04:54:56;;;;;;;2.03;1.83;;;15.60;71.30;;;;;;5083651;28;21477;-48
2022/08/29 04:57:23;;;;;;;4.07;2.27;;;15.60;71.70;;;;;;5064052;28;20491;-49
2022/08/29 04:59:57;;;;;;;7.17;2.07;;;15.70;71.80;;;;;;5069178;28;20463;-48
2022/08/29 05:02:26;;;;;;;4.57;2.17;;;15.70;71.90;;;;;;5083437;28;20456;-48
2022/08/29 05:04:55;;;;;;;4.00;1.80;;;15.80;70.50;;;;;;5086611;28;20464;-48
2022/08/29 05:07:26;;;;;;;4.37;2.20;;;16.00;69.80;;;;;;5088516;28;21047;-48
2022/08/29 05:09:59;;;;;;;3.20;2.67;;;16.00;69.10;;;;;;5088567;28;20472;-48
2022/08/29 05:12:32;;;;;;;5.00;2.40;;;16.10;68.50;;;;;;5086288;28;20465;-48
2022/08/29 05:14:59;;;;;;;4.90;2.50;;;16.20;68.20;;;;;;5068281;28;20463;-48
2022/08/29 05:17:26;;;;;;;4.93;2.10;;;16.20;68.00;;;;;;5066067;28;20486;-48
2022/08/29 05:19:53;;;;;;;6.63;1.93;;;16.20;68.20;;;;;;5084325;28;20448;-48
2022/08/29 05:22:21;;;;;;;4.33;2.30;;;16.20;68.20;;;;;;5088778;28;20463;-48
2022/08/29 05:24:48;;;;;;;3.60;2.30;;;16.20;67.80;;;;;;5070402;28;20996;-48
2022/08/29 05:27:18;;;;;;;4.57;2.57;;;16.30;68.80;;;;;;5087667;28;20949;-48
2022/08/29 05:29:47;;;;;;;3.30;2.13;;;16.40;68.70;;;;;;5086893;28;20457;-48
2022/08/29 05:32:14;;;;;;;4.53;2.60;;;16.50;68.80;;;;;;5068264;28;20457;-48
2022/08/29 05:34:42;;;;;;;4.93;1.90;;;16.50;69.40;;;;;;5069738;28;20453;-48
2022/08/29 05:37:13;;;;;;;3.83;1.87;;;16.50;69.60;;;;;;5069736;28;21006;-49
2022/08/29 05:39:41;;;;;;;5.03;2.20;;;16.60;69.60;;;;;;5053729;28;20536;-49
2022/08/29 05:42:10;;;;;;;3.57;2.27;;;16.70;69.20;;;;;;5068467;28;20470;-48
2022/08/29 05:44:38;;;;;;;8.27;2.70;;;16.80;69.00;;;;;;5088456;28;21004;-49
2022/08/29 05:47:08;;;;;;;4.77;2.30;;;16.90;69.40;;;;;;5087229;28;20472;-49
2022/08/29 05:49:37;;;;;;;1.87;1.67;;;17.10;69.10;;;;;;5078772;28;20871;-49
2022/08/29 05:52:05;;;;;;;2.63;2.40;;;17.10;69.20;;;;;;5049443;28;21046;-49
2022/08/29 05:54:35;;;;;;;4.20;2.60;;;17.30;69.20;;;;;;5070616;28;21013;-49
2022/08/29 05:57:02;;;;;;;4.70;2.00;;;17.30;69.10;;;;;;5086409;28;20476;-49
2022/08/29 05:59:29;;;;;;;8.80;2.20;;;17.50;68.60;;;;;;5087120;28;20946;-49
2022/08/29 06:01:56;;;;;;;4.07;1.90;;;17.50;68.30;;;;;;5085281;28;20445;-49
2022/08/29 06:04:23;;;;;;;9.40;3.50;;;17.60;67.90;;;;;;5083002;28;20460;-49
2022/08/29 06:06:49;;;;;;;6.33;3.20;;;17.70;68.70;;;;;;5085216;28;20464;-49
2022/08/29 06:09:17;;;;;;;4.93;2.57;;;17.80;68.40;;;;;;5070204;28;20460;-49
2022/08/29 06:11:50;;;;;;;4.67;2.50;;;17.80;68.30;;;;;;5084650;28;20457;-49
2022/08/29 06:14:17;;;;;;;2.70;2.10;;;17.90;65.90;;;;;;5079057;28;20464;-49
2022/08/29 06:16:43;;;;;;;3.60;2.70;;;17.90;64.60;;;;;;5084293;28;20995;-49
2022/08/29 06:19:11;;;;;;;6.10;1.80;;;17.90;64.70;;;;;;5087238;28;20514;-49
2022/08/29 06:21:41;;;;;;;4.43;2.53;;;18.00;65.10;;;;;;5080026;28;20478;-49
2022/08/29 06:24:08;;;;;;;5.20;2.17;;;18.00;63.30;;;;;;5082786;28;20461;-49
2022/08/29 06:26:35;;;;;;;5.53;2.23;;;18.10;62.20;;;;;;5066249;28;20461;-49
2022/08/29 06:29:08;;;;;;;9.13;2.70;;;18.20;62.90;;;;;;5085272;28;20453;-48
2022/08/29 06:31:35;;;;;;;2.07;1.70;;;18.30;61.90;;;;;;5087475;28;20461;-49
2022/08/29 06:34:04;;;;;;;5.90;2.20;;;18.30;62.10;;;;;;5083886;28;20460;-49
2022/08/29 06:36:32;;;;;;;3.70;1.90;;;18.40;61.60;;;;;;5064741;28;20803;-49
2022/08/29 06:39:06;;;;;;;5.50;1.97;;;18.50;63.70;;;;;;5094860;28;20763;-51
2022/08/29 06:41:33;;;;;;;4.13;2.17;;;18.60;62.90;;;;;;5085856;28;20457;-50
2022/08/29 06:44:01;;;;;;;4.60;2.00;;;18.60;61.70;;;;;;5084170;28;20464;-50
2022/08/29 06:46:35;;;;;;;5.77;2.10;;;18.70;60.90;;;;;;5084718;28;20468;-50
2022/08/29 06:49:05;;;;;;;5.80;2.80;;;18.90;62.20;;;;;;5065101;28;20856;-50
2022/08/29 06:51:33;;;;;;;5.83;2.20;;;19.00;61.10;;;;;;5087243;28;20858;-50
2022/08/29 06:54:02;;;;;;;6.73;2.23;;;19.00;61.60;;;;;;5066560;28;20468;-50
2022/08/29 06:56:33;;;;;;;3.13;1.97;;;19.10;61.90;;;;;;5069801;28;20460;-50
2022/08/29 06:59:03;;;;;;;6.00;1.87;;;19.10;62.40;;;;;;5082738;28;20485;-50
2022/08/29 07:01:31;;;;;;;5.23;2.17;;;19.10;62.30;;;;;;5080832;28;20488;-50
2022/08/29 07:04:00;;;;;;;6.80;2.40;;;19.20;62.50;;;;;;5083593;28;20460;-50
2022/08/29 07:06:27;;;;;;;3.47;2.27;;;19.20;60.80;;;;;;5088285;28;20953;-50
2022/08/29 07:08:56;;;;;;;4.90;2.13;;;19.30;59.40;;;;;;5089699;28;20962;-50
2022/08/29 07:11:24;;;;;;;3.63;1.97;;;19.40;58.80;;;;;;5087115;28;20475;-50
2022/08/29 07:13:51;;;;;;;3.50;2.00;;;19.50;58.80;;;;;;5084697;28;20968;-50
2022/08/29 07:16:18;;;;;;;10.30;2.70;;;19.60;59.30;;;;;;5084417;28;20468;-50
2022/08/29 07:18:46;;;;;;;3.60;2.70;;;19.70;58.80;;;;;;5085492;28;20846;-49
2022/08/29 07:21:16;;;;;;;3.27;1.80;;;19.90;59.10;;;;;;5088374;28;20458;-49
2022/08/29 07:23:47;;;;;;;3.90;2.03;;;19.90;57.40;;;;;;5070764;28;20490;-50
2022/08/29 07:26:17;;;;;;;2.40;1.83;;;20.00;56.60;;;;;;5083873;28;20460;-50
2022/08/29 07:28:49;;;;;;;3.83;2.03;;;20.10;56.40;;;;;;5087144;28;20543;-49
2022/08/29 07:31:17;;;;;;;6.80;2.23;;;20.20;56.20;;;;;;5084071;28;20464;-49
2022/08/29 07:33:44;;;;;;;4.00;1.80;;;20.30;56.30;;;;;;5073315;28;20551;-49
2022/08/29 07:36:11;;;;;;;4.27;2.33;;;20.40;56.70;;;;;;5087672;28;20472;-50
2022/08/29 07:38:38;;;;;;;2.93;1.70;;;20.50;55.90;;;;;;5082725;28;20477;-49
2022/08/29 07:41:13;;;;;;;3.80;1.80;;;20.60;55.80;;;;;;5070798;28;20826;-49
2022/08/29 07:43:41;;;;;;;6.27;2.23;;;20.70;55.30;;;;;;5082980;28;20860;-49
2022/08/29 07:46:17;;;;;;;2.80;1.50;;;20.70;55.30;;;;;;5086431;28;20452;-50
2022/08/29 07:48:44;;;;;;;2.40;1.80;;;20.80;55.50;;;;;;5083795;28;20525;-49
2022/08/29 07:51:14;;;;;;;4.73;1.90;;;20.90;56.40;;;;;;5084243;28;20456;-49
2022/08/29 07:53:41;;;;;;;4.40;2.17;;;21.00;55.40;;;;;;5083434;28;20456;-50
2022/08/29 07:56:11;;;;;;;2.53;2.13;;;21.10;54.60;;;;;;5085207;28;20458;-49
2022/08/29 07:58:38;;;;;;;6.30;1.93;;;21.10;54.60;;;;;;5069061;28;20496;-49
2022/08/29 08:01:05;;;;;;;4.20;2.40;;;21.20;54.60;;;;;;5064827;28;20467;-49
2022/08/29 08:03:35;;;;;;;5.77;2.83;;;21.30;54.70;;;;;;5049398;28;20456;-49
2022/08/29 08:06:03;;;;;;;3.40;2.80;;;21.30;54.90;;;;;;5085714;28;20447;-49
2022/08/29 08:08:32;;;;;;;4.60;2.57;;;21.40;54.70;;;;;;5083560;28;20506;-49
2022/08/29 08:11:02;;;;;;;4.10;2.47;;;21.40;54.90;;;;;;5086210;28;20460;-49
2022/08/29 08:13:28;;;;;;;4.43;2.60;;;21.50;53.70;;;;;;5084673;28;20454;-50
2022/08/29 08:15:55;;;;;;;4.43;2.73;;;21.60;53.70;;;;;;5062887;28;20468;-49
2022/08/29 08:18:24;;;;;;;3.87;2.27;;;21.60;53.60;;;;;;5084130;28;20507;-49
2022/08/29 08:20:50;;;;;;;5.50;2.40;;;21.70;53.00;;;;;;5079935;28;20456;-49
2022/08/29 08:23:18;;;;;;;4.43;2.67;;;21.80;53.40;;;;;;5079611;28;20539;-49
2022/08/29 08:25:45;;;;;;;4.13;2.50;;;21.80;53.50;;;;;;5086443;28;20467;-49
2022/08/29 08:28:13;;;;;;;5.70;2.80;;;21.90;52.80;;;;;;5068444;28;20464;-49
2022/08/29 08:30:40;;;;;;;6.27;2.30;;;22.00;52.60;;;;;;5071345;28;20464;-49
2022/08/29 08:33:07;;;;;;;9.03;2.30;;;22.10;52.10;;;;;;5088138;28;20471;-49
2022/08/29 08:35:36;;;;;;;5.00;2.30;;;22.10;52.70;;;;;;5070218;28;20548;-49
2022/08/29 08:38:04;;;;;;;5.23;2.80;;;22.10;53.70;;;;;;5070976;28;20484;-50
2022/08/29 08:40:31;;;;;;;6.50;2.10;;;22.10;53.70;;;;;;5072080;28;20436;-49
2022/08/29 08:43:01;;;;;;;5.80;2.50;;;22.10;54.20;;;;;;5071034;28;20742;-49
2022/08/29 08:45:38;;;;;;;4.23;2.50;;;22.10;53.20;;;;;;5088973;28;20811;-49
2022/08/29 08:48:33;;;;;;;4.57;1.90;;;22.20;52.80;;;;;;5071267;28;20961;-50
2022/08/29 08:51:26;;;;;;;6.20;2.10;;;22.20;51.90;;;;;;5087473;28;20845;-49
2022/08/29 08:53:56;;;;;;;4.80;2.50;;;22.20;52.10;;;;;;5089286;28;20621;-50
2022/08/29 08:56:45;;;;;;;3.80;2.47;;;22.40;52.60;;;;;;5090891;28;20881;-50
2022/08/29 08:59:15;;;;;;;6.30;3.30;;;22.60;52.10;;;;;;5083574;28;20492;-49
2022/08/29 09:01:56;;;;;;;6.13;3.10;;;22.60;51.50;;;;;;5056048;28;20966;-49
2022/08/29 09:04:51;;;;;;;6.50;2.37;;;22.70;51.20;;;;;;5089454;28;20447;-50
2022/08/29 09:07:41;;;;;;;6.23;2.13;;;22.90;51.40;;;;;;5079023;28;20475;-50
2022/08/29 09:10:41;;;;;;;6.67;2.60;;;22.90;50.50;;;;;;5052203;28;21004;-50
2022/08/29 09:13:11;;;;;;;4.90;2.33;;;23.00;51.10;;;;;;5051660;28;20468;-50
2022/08/29 09:15:42;;;;;;;6.50;3.43;;;23.00;50.50;;;;;;5067105;28;20471;-50
2022/08/29 09:18:35;;;;;;;6.47;1.73;;;23.10;50.60;;;;;;5082893;28;20496;-50
2022/08/29 09:21:04;;;;;;;7.60;2.10;;;23.20;50.30;;;;;;5084872;28;20460;-50
2022/08/29 09:23:54;;;;;;;3.97;2.20;;;23.30;50.10;;;;;;5073397;28;20455;-50
2022/08/29 09:26:22;;;;;;;4.70;2.27;;;23.40;50.30;;;;;;5087433;28;21029;-50
2022/08/29 09:28:49;;;;;;;7.83;2.80;;;23.50;50.20;;;;;;5070527;28;20459;-50
2022/08/29 09:31:31;;;;;;;5.67;2.40;;;23.60;50.30;;;;;;5088744;28;20468;-50
2022/08/29 09:34:02;;;;;;;4.00;2.30;;;23.70;49.80;;;;;;5082367;28;20466;-50
2022/08/29 09:36:43;;;;;;;4.10;2.17;;;23.80;49.20;;;;;;5068672;28;20465;-50
2022/08/29 09:39:24;;;;;;;5.30;2.10;;;23.90;49.10;;;;;;5068651;28;20606;-50
2022/08/29 09:42:11;;;;;;;4.87;2.37;;;24.00;49.20;;;;;;5089243;28;20960;-50
2022/08/29 09:44:40;;;;;;;4.73;2.13;;;24.00;48.60;;;;;;5052766;28;20501;-50
2022/08/29 09:47:11;;;;;;;2.70;2.00;;;24.00;48.50;;;;;;5086652;28;20471;-50
2022/08/29 09:49:40;;;;;;;4.73;2.20;;;24.10;48.30;;;;;;5090691;28;20539;-50
2022/08/29 09:52:16;;;;;;;5.23;2.00;;;24.20;47.70;;;;;;5085999;28;20453;-50
2022/08/29 09:54:43;;;;;;;3.70;1.83;;;24.20;47.80;;;;;;5086786;28;20455;-50
2022/08/29 09:57:27;;;;;;;4.97;2.10;;;24.20;47.80;;;;;;5089680;28;20468;-50
2022/08/29 10:00:07;;;;;;;7.20;2.53;;;24.30;47.90;;;;;;5085327;28;21200;-50
2022/08/29 10:02:56;;;;;;;5.40;2.00;;;24.40;47.90;;;;;;5085278;28;21179;-50
2022/08/29 10:05:35;;;;;;;5.87;2.17;;;24.50;47.10;;;;;;5067415;28;20976;-50
2022/08/29 10:08:04;;;;;;;6.90;2.50;;;24.70;47.20;;;;;;5085268;28;20462;-50
2022/08/29 10:10:35;;;;;;;6.83;2.27;;;24.80;46.80;;;;;;5072185;28;20456;-50
2022/08/29 10:13:20;;;;;;;3.10;1.77;;;25.00;46.60;;;;;;5073072;28;20449;-50
2022/08/29 10:16:25;;;;;;;3.80;2.27;;;25.10;47.20;;;;;;5083089;28;21058;-50
2022/08/29 10:18:56;;;;;;;4.90;2.37;;;25.20;47.10;;;;;;5068614;28;20542;-50
2022/08/29 10:22:01;;;;;;;4.37;2.03;;;25.30;46.90;;;;;;5083347;28;20474;-50
2022/08/29 10:24:38;;;;;;;4.43;1.80;;;25.40;46.10;;;;;;5085355;28;20467;-50
2022/08/29 10:27:35;;;;;;;3.27;1.87;;;25.60;45.20;;;;;;5084855;28;20493;-50
2022/08/29 10:30:17;;;;;;;3.97;1.77;;;25.70;44.50;;;;;;5063183;28;20460;-50
2022/08/29 10:33:12;;;;;;;4.83;1.77;;;25.80;44.80;;;;;;5080278;28;20456;-50
2022/08/29 10:35:50;;;;;;;4.90;1.97;;;26.00;43.50;;;;;;5089268;28;20476;-50
2022/08/29 10:38:39;;;;;;;5.63;2.30;;;26.60;43.40;;;;;;5082150;28;20926;-50
2022/08/29 10:41:44;;;;;;;4.40;1.70;;;27.20;41.20;;;;;;5083333;28;20546;-50
2022/08/29 10:44:33;;;;;;;6.30;1.87;;;28.20;40.50;;;;;;4948519;28;20974;-51
2022/08/29 10:47:06;;;;;;;6.50;1.50;;;28.30;39.50;;;;;;4964982;28;20553;-50
2022/08/29 10:49:41;;;;;;;3.80;1.83;;;28.10;39.90;;;;;;5046247;28;20456;-50
2022/08/29 10:52:32;;;;;;;3.23;1.70;;;27.90;40.60;;;;;;5085337;28;20829;-50
2022/08/29 10:55:42;;;;;;;3.80;1.70;;;27.60;40.30;;;;;;5060306;28;20478;-50
2022/08/29 10:58:28;;;;;;;4.40;2.10;;;27.20;40.90;;;;;;5061739;28;20483;-50
2022/08/29 11:00:58;;;;;;;6.40;2.17;;;26.80;41.90;;;;;;5087136;28;20474;-50
2022/08/29 11:03:39;;;;;;;3.27;2.40;;;26.60;42.00;;;;;;5064671;28;20492;-50
2022/08/29 11:06:18;;;;;;;3.23;2.23;;;26.40;42.70;;;;;;5064793;28;20987;-50
2022/08/29 11:09:07;;;;;;;11.43;2.23;;;26.40;42.90;;;;;;5083145;28;20554;-50
2022/08/29 11:11:38;;;;;;;2.87;1.80;;;27.40;42.00;;;;;;5065677;28;20460;-50
2022/08/29 11:14:15;;;;;;;3.23;1.60;;;28.50;39.60;;;;;;5065925;28;20597;-50
2022/08/29 11:16:46;;;;;;;4.33;2.30;;;28.60;39.30;;;;;;5080581;28;20197;-50
2022/08/29 11:19:27;;;;;;;3.17;1.80;;;28.30;40.00;;;;;;5062604;28;20752;-50
2022/08/29 11:21:57;;;;;;;5.40;2.13;;;27.90;41.00;;;;;;5071277;28;21024;-50
2022/08/29 11:24:27;;;;;;;4.70;2.27;;;27.50;41.60;;;;;;5064004;28;20456;-50
2022/08/29 11:27:15;;;;;;;4.33;1.87;;;27.20;42.10;;;;;;5064871;28;20452;-50
2022/08/29 11:30:01;;;;;;;2.70;1.50;;;26.90;42.60;;;;;;5083569;28;20751;-50
2022/08/29 11:32:49;;;;;;;2.57;2.10;;;26.60;42.00;;;;;;5079770;28;20460;-50
2022/08/29 11:35:28;;;;;;;3.30;2.03;;;26.40;42.70;;;;;;5067796;28;20490;-50
2022/08/29 11:38:21;;;;;;;5.20;2.10;;;26.10;42.80;;;;;;5077467;28;21851;-50
2022/08/29 11:41:12;;;;;;;5.20;2.10;;;26.00;43.20;;;;;;5065338;28;20852;-50
2022/08/29 11:44:38;;;;;;;2.30;1.97;;;25.80;43.80;;;;;;5076133;28;20463;-50
2022/08/29 11:47:37;;;;;;;6.40;2.60;;;25.70;43.80;;;;;;5055246;28;20464;-50
2022/08/29 11:50:15;;;;;;;6.03;2.67;;;25.60;44.50;;;;;;5084467;28;20451;-50
2022/08/29 11:53:12;;;;;;;3.83;1.57;;;25.50;45.00;;;;;;5083101;28;20459;-50
2022/08/29 11:56:04;;;;;;;2.80;1.80;;;25.50;45.10;;;;;;5082989;28;20452;-50
2022/08/29 11:58:31;;;;;;;3.17;1.73;;;25.40;44.90;;;;;;5085663;28;20837;-50
2022/08/29 12:00:58;;;;;;;2.90;1.83;;;25.30;44.90;;;;;;5069661;28;20463;-50
2022/08/29 12:03:31;;;;;;;2.80;2.03;;;25.30;44.80;;;;;;5072698;28;20456;-50
2022/08/29 12:06:01;;;;;;;2.30;1.83;;;25.40;44.80;;;;;;5090357;28;20459;-50
2022/08/29 12:08:38;;;;;;;4.40;2.10;;;25.30;45.30;;;;;;5063839;28;20468;-50
2022/08/29 12:11:05;;;;;;;4.10;2.20;;;25.30;45.20;;;;;;5081691;28;20459;-50
2022/08/29 12:14:02;;;;;;;4.57;2.23;;;25.30;44.80;;;;;;5089097;28;20814;-50
2022/08/29 12:16:49;;;;;;;2.73;1.83;;;25.30;45.30;;;;;;5067470;28;20988;-50
2022/08/29 12:19:50;;;;;;;5.60;2.07;;;25.30;45.30;;;;;;5089354;28;21076;-50
2022/08/29 12:22:42;;;;;;;9.40;2.87;;;25.30;45.80;;;;;;5072784;28;20450;-50
2022/08/29 12:25:32;;;;;;;2.63;1.67;;;25.30;45.90;;;;;;5071409;28;20508;-50
2022/08/29 12:28:14;;;;;;;4.67;2.00;;;25.30;45.70;;;;;;5086625;28;20457;-50
2022/08/29 12:30:45;;;;;;;5.80;2.20;;;25.30;46.10;;;;;;5090013;28;21002;-50
2022/08/29 12:33:20;;;;;;;6.60;2.30;;;25.30;45.50;;;;;;5087798;28;20470;-50
2022/08/29 12:35:51;;;;;;;3.37;2.20;;;25.30;45.50;;;;;;5091298;28;20448;-50
2022/08/29 12:38:48;;;;;;;7.03;2.07;;;25.20;45.10;;;;;;5088634;28;20460;-50
2022/08/29 12:41:45;;;;;;;5.70;2.30;;;25.20;45.60;;;;;;5061599;28;20474;-50
2022/08/29 12:44:15;;;;;;;2.93;1.90;;;25.30;45.70;;;;;;5082750;28;20456;-50
2022/08/29 12:46:44;;;;;;;5.63;2.47;;;25.30;45.90;;;;;;5087995;28;20535;-50
2022/08/29 12:49:25;;;;;;;3.07;1.57;;;25.30;46.00;;;;;;5088051;28;20971;-50
2022/08/29 12:52:02;;;;;;;4.97;2.33;;;25.30;45.90;;;;;;5088353;28;20809;-50
2022/08/29 12:54:40;;;;;;;2.53;2.20;;;25.30;45.70;;;;;;5070862;28;20459;-50
2022/08/29 12:57:19;;;;;;;3.67;2.10;;;25.30;45.50;;;;;;5089414;28;20478;-50
2022/08/29 12:59:49;;;;;;;4.80;2.40;;;25.40;45.50;;;;;;5070805;28;20479;-50
2022/08/29 13:02:29;;;;;;;4.37;2.03;;;25.50;45.30;;;;;;5088713;28;20456;-50
2022/08/29 13:04:57;;;;;;;2.23;1.70;;;25.90;45.00;;;;;;5089669;28;20448;-50
2022/08/29 13:07:26;;;;;;;5.13;2.03;;;26.30;44.20;;;;;;5086931;28;20493;-50
2022/08/29 13:09:59;;;;;;;2.80;2.00;;;26.60;43.40;;;;;;5089005;28;20832;-50
2022/08/29 13:12:31;;;;;;;3.50;1.70;;;26.70;42.90;;;;;;5071583;28;20458;-50
2022/08/29 13:14:59;;;;;;;6.20;2.30;;;26.60;43.40;;;;;;5089258;28;20490;-50
2022/08/29 13:17:40;;;;;;;6.23;2.30;;;26.50;43.70;;;;;;5087621;28;20455;-50
2022/08/29 13:20:41;;;;;;;3.60;2.10;;;26.40;43.30;;;;;;5069944;28;20857;-50